Time;durP1;ratioP1;P1;durP2;ratioP2;P2;SDS_P1;SDS_P2;PMS_P1;PMS_P2;Temp;Humidity;BMP_temperature;BMP_pressure;BME280_temperature;BME280_humidity;BME280_pressure;Samples;Min_cycle;Max_cycle;Signal;HPM_P1;HPM_P2
2022/03/08 00:01:20;;;;;;;20.20;14.23;;;;;;;7.63;51.19;100462.16;5053673;28;20032;-84
2022/03/08 00:03:46;;;;;;;21.85;14.82;;;;;;;7.73;50.65;100455.47;5053661;28;20382;-85
2022/03/08 00:06:11;;;;;;;20.33;14.35;;;;;;;7.81;50.04;100455.06;5053624;28;20100;-84
2022/03/08 00:08:37;;;;;;;16.63;13.52;;;;;;;7.86;50.34;100450.44;5053444;28;20040;-84
2022/03/08 00:11:03;;;;;;;22.75;14.90;;;;;;;7.65;50.49;100447.22;5053377;28;20014;-85
2022/03/08 00:13:29;;;;;;;19.42;14.88;;;;;;;7.53;51.04;100448.72;5053500;28;20024;-85
2022/03/08 00:15:54;;;;;;;22.17;15.15;;;;;;;7.50;50.15;100435.00;5052650;28;20033;-84
2022/03/08 00:18:20;;;;;;;18.40;14.90;;;;;;;7.63;50.17;100446.47;5052940;28;20040;-85
2022/03/08 00:20:45;;;;;;;23.80;14.68;;;;;;;7.78;49.38;100444.78;5053467;28;20040;-85
2022/03/08 00:23:10;;;;;;;21.67;14.70;;;;;;;7.90;49.00;100432.81;5052962;28;20025;-84
2022/03/08 00:25:36;;;;;;;21.55;15.50;;;;;;;7.74;49.85;100430.16;5053030;28;20028;-84
2022/03/08 00:28:01;;;;;;;25.08;15.82;;;;;;;7.79;48.85;100424.72;5053238;28;20629;-84
2022/03/08 00:30:27;;;;;;;23.98;15.52;;;;;;;7.92;49.22;100428.31;5052900;28;20037;-86
2022/03/08 00:32:54;;;;;;;20.55;15.10;;;;;;;8.20;48.58;100417.13;5053279;28;20036;-85
2022/03/08 00:35:21;;;;;;;19.83;14.63;;;;;;;8.08;48.26;100410.81;5053043;28;20037;-85
2022/03/08 00:37:49;;;;;;;22.50;15.55;;;;;;;8.19;48.68;100404.13;5052744;28;20552;-86
2022/03/08 00:40:17;;;;;;;24.80;15.15;;;;;;;8.01;48.04;100406.03;5052829;28;20471;-84
2022/03/08 00:42:42;;;;;;;23.33;15.43;;;;;;;8.01;47.76;100406.88;5052749;28;20104;-84
2022/03/08 00:45:09;;;;;;;23.75;16.77;;;;;;;8.19;47.51;100401.50;5052923;28;20058;-85
2022/03/08 00:47:36;;;;;;;27.58;17.20;;;;;;;8.13;47.54;100400.09;5052824;28;20098;-85
2022/03/08 00:50:03;;;;;;;22.63;16.52;;;;;;;8.16;47.49;100393.88;5052774;28;20418;-85
2022/03/08 00:52:29;;;;;;;21.23;15.98;;;;;;;8.21;46.92;100395.25;5052373;28;20475;-85
2022/03/08 00:54:54;;;;;;;28.15;18.00;;;;;;;8.29;46.42;100395.66;5052477;28;20036;-85
2022/03/08 00:57:19;;;;;;;20.95;17.30;;;;;;;8.28;46.58;100393.97;5052581;28;20195;-85
2022/03/08 00:59:45;;;;;;;24.05;16.75;;;;;;;8.23;47.00;100385.53;5052547;28;20039;-85
2022/03/08 01:02:10;;;;;;;21.23;16.10;;;;;;;8.30;46.44;100392.09;5052714;28;20548;-85
2022/03/08 01:04:35;;;;;;;30.60;16.30;;;;;;;8.27;46.56;100380.97;5052675;28;20368;-85
2022/03/08 01:07:01;;;;;;;25.65;18.33;;;;;;;8.42;46.23;100381.88;5052494;28;20021;-85
2022/03/08 01:09:26;;;;;;;23.58;17.58;;;;;;;8.36;46.43;100382.22;5052233;28;20032;-85
2022/03/08 01:11:52;;;;;;;26.85;18.73;;;;;;;8.43;46.38;100378.31;5052180;28;20079;-85
2022/03/08 01:14:17;;;;;;;25.70;17.25;;;;;;;8.44;46.21;100372.19;5052083;28;20095;-85
2022/03/08 01:16:43;;;;;;;26.75;17.45;;;;;;;8.59;45.31;100370.41;5052265;28;20112;-85
2022/03/08 01:19:08;;;;;;;27.33;17.10;;;;;;;8.64;45.20;100363.13;5052243;28;20032;-85
2022/03/08 01:21:35;;;;;;;21.92;16.67;;;;;;;8.48;46.03;100364.03;5052333;28;20083;-85
2022/03/08 01:24:01;;;;;;;26.73;16.45;;;;;;;8.31;46.64;100366.78;5051818;28;20029;-85
2022/03/08 01:26:26;;;;;;;28.33;16.92;;;;;;;8.28;46.02;100364.38;5052039;28;20388;-84
2022/03/08 01:28:51;;;;;;;22.20;17.05;;;;;;;8.36;45.97;100358.69;5051608;28;20025;-84
2022/03/08 01:31:18;;;;;;;29.52;18.15;;;;;;;8.30;46.08;100355.47;5051981;28;20401;-84
2022/03/08 01:33:43;;;;;;;31.25;17.10;;;;;;;8.27;46.14;100358.31;5052432;28;20075;-83
2022/03/08 01:36:09;;;;;;;27.83;18.25;;;;;;;8.49;46.51;100343.94;5051996;28;20021;-84
2022/03/08 01:38:34;;;;;;;22.35;17.35;;;;;;;8.58;46.13;100338.16;5051408;28;20024;-84
2022/03/08 01:40:59;;;;;;;28.75;18.35;;;;;;;8.60;45.82;100330.22;5051424;28;20028;-84
2022/03/08 01:43:25;;;;;;;29.50;18.52;;;;;;;8.64;46.02;100326.47;5051678;28;20024;-84
2022/03/08 01:45:50;;;;;;;25.77;17.85;;;;;;;8.29;46.37;100317.19;5051952;28;20036;-84
2022/03/08 01:48:15;;;;;;;25.13;18.65;;;;;;;8.35;46.03;100308.09;5051968;28;20571;-84
2022/03/08 01:50:41;;;;;;;26.35;17.83;;;;;;;8.46;46.09;100310.13;5051700;28;20519;-84
2022/03/08 01:53:07;;;;;;;27.42;18.73;;;;;;;8.14;46.66;100303.25;5051811;28;20450;-84
2022/03/08 01:55:33;;;;;;;23.52;18.52;;;;;;;8.19;47.31;100305.56;5051434;28;20061;-84
2022/03/08 01:57:59;;;;;;;30.75;18.98;;;;;;;8.21;46.74;100305.47;5051390;28;20096;-85
2022/03/08 02:00:28;;;;;;;30.30;18.92;;;;;;;8.02;46.87;100300.53;5051331;28;20100;-83
2022/03/08 02:02:54;;;;;;;23.05;17.45;;;;;;;7.87;47.37;100302.25;5051586;28;20021;-84
2022/03/08 02:05:19;;;;;;;25.65;17.98;;;;;;;7.88;47.28;100304.78;5051982;28;20483;-84
2022/03/08 02:07:45;;;;;;;27.30;18.35;;;;;;;7.91;47.40;100301.97;5051939;28;20099;-84
2022/03/08 02:10:11;;;;;;;25.55;17.90;;;;;;;8.07;47.24;100298.47;5051697;28;20036;-83
2022/03/08 02:12:37;;;;;;;28.25;18.65;;;;;;;7.83;47.65;100293.75;5051198;28;20027;-84
2022/03/08 02:15:24;;;;;;;27.17;19.05;;;;;;;7.62;48.34;100279.31;5051678;28;20048;-83
2022/03/08 02:17:50;;;;;;;27.15;18.45;;;;;;;7.73;48.41;100284.75;5051672;28;20356;-84
2022/03/08 02:20:16;;;;;;;27.65;18.60;;;;;;;7.65;48.18;100284.38;5051682;28;20024;-84
2022/03/08 02:22:47;;;;;;;28.83;18.77;;;;;;;7.44;48.87;100274.19;5051812;28;20108;-84
2022/03/08 02:25:14;;;;;;;26.08;17.05;;;;;;;7.64;48.46;100280.06;5051597;28;20032;-84
2022/03/08 02:27:45;;;;;;;28.58;17.83;;;;;;;7.37;49.29;100267.66;5049940;28;20858;-84
2022/03/08 02:30:12;;;;;;;24.83;17.92;;;;;;;7.60;48.25;100270.72;5051508;28;20021;-84
2022/03/08 02:32:39;;;;;;;29.80;18.13;;;;;;;7.49;48.69;100271.34;5051461;28;20526;-84
2022/03/08 02:35:06;;;;;;;25.25;18.92;;;;;;;7.57;48.59;100263.91;5051548;28;20040;-84
2022/03/08 02:37:41;;;;;;;26.15;18.88;;;;;;;7.41;48.96;100255.28;5051280;28;20112;-85
2022/03/08 02:40:09;;;;;;;26.10;18.25;;;;;;;7.50;49.14;100252.09;5052511;28;20029;-84
2022/03/08 02:42:35;;;;;;;26.50;19.48;;;;;;;7.30;49.18;100248.03;5054690;28;20036;-84
2022/03/08 02:45:01;;;;;;;31.38;18.95;;;;;;;7.32;49.29;100241.78;5055150;28;20434;-84
2022/03/08 02:47:26;;;;;;;27.02;19.52;;;;;;;7.40;49.43;100235.28;5055202;28;20021;-84
2022/03/08 02:49:51;;;;;;;22.20;18.00;;;;;;;7.40;48.98;100233.50;5055013;28;20031;-84
2022/03/08 02:52:17;;;;;;;31.35;19.92;;;;;;;7.20;49.71;100229.44;5057666;28;20352;-84
2022/03/08 02:54:42;;;;;;;26.88;18.83;;;;;;;7.29;49.41;100220.25;5053731;28;20057;-84
2022/03/08 02:57:07;;;;;;;22.48;17.60;;;;;;;7.28;49.78;100224.59;5054612;28;20025;-84
2022/03/08 02:59:33;;;;;;;30.70;18.33;;;;;;;7.38;49.46;100224.91;5054701;28;20021;-84
2022/03/08 03:01:58;;;;;;;25.38;18.70;;;;;;;7.29;49.51;100228.91;5054881;28;20017;-83
2022/03/08 03:04:23;;;;;;;30.52;19.05;;;;;;;7.21;49.80;100215.47;5054451;28;21943;-84
2022/03/08 03:06:49;;;;;;;29.40;19.08;;;;;;;7.12;50.57;100214.19;5054788;28;20490;-84
2022/03/08 03:09:15;;;;;;;25.98;18.48;;;;;;;6.89;50.70;100227.69;5054986;28;20049;-84
2022/03/08 03:11:41;;;;;;;27.52;18.48;;;;;;;6.83;50.71;100207.16;5054670;28;20082;-84
2022/03/08 03:14:06;;;;;;;27.13;18.70;;;;;;;6.88;50.78;100205.97;5054545;28;20025;-84
2022/03/08 03:16:32;;;;;;;29.52;18.88;;;;;;;6.45;51.77;100202.28;5054220;28;20021;-84
2022/03/08 03:18:57;;;;;;;26.25;18.02;;;;;;;6.61;51.87;100202.28;5054512;28;20027;-84
2022/03/08 03:21:23;;;;;;;26.63;18.10;;;;;;;6.76;50.73;100198.84;5054516;28;20414;-84
2022/03/08 03:23:48;;;;;;;25.27;18.52;;;;;;;6.75;51.10;100199.75;5054563;28;20025;-84
2022/03/08 03:26:13;;;;;;;22.98;16.98;;;;;;;6.59;51.66;100194.53;5054416;28;20017;-84
2022/03/08 03:28:39;;;;;;;23.23;16.50;;;;;;;6.67;51.40;100197.56;5054330;28;20025;-84
2022/03/08 03:31:04;;;;;;;26.02;16.88;;;;;;;6.63;51.37;100193.44;5054390;28;20033;-84
2022/03/08 03:33:29;;;;;;;25.77;18.45;;;;;;;6.57;51.68;100191.16;5053990;28;20036;-84
2022/03/08 03:35:55;;;;;;;27.75;17.58;;;;;;;6.53;51.72;100187.03;5058484;28;20054;-84
2022/03/08 03:38:20;;;;;;;29.83;17.63;;;;;;;6.47;51.97;100184.78;5063729;28;20025;-84
2022/03/08 03:40:46;;;;;;;29.25;18.98;;;;;;;6.35;52.51;100181.91;5066760;28;20021;-84
2022/03/08 03:43:11;;;;;;;27.02;16.65;;;;;;;6.28;52.74;100179.69;5073216;28;20036;-84
2022/03/08 03:45:37;;;;;;;25.25;17.50;;;;;;;6.21;52.94;100167.94;5069912;28;20059;-83
2022/03/08 03:48:03;;;;;;;27.42;17.02;;;;;;;6.25;52.66;100166.84;5066372;28;20077;-84
2022/03/08 03:50:28;;;;;;;30.98;17.38;;;;;;;6.07;53.30;100163.47;5069615;28;20055;-84
2022/03/08 03:52:54;;;;;;;31.40;17.08;;;;;;;5.84;54.24;100149.81;5070191;28;20021;-84
2022/03/08 03:55:19;;;;;;;23.85;17.67;;;;;;;5.94;53.84;100151.06;5069510;28;20033;-84
2022/03/08 03:57:44;;;;;;;30.85;17.25;;;;;;;5.99;53.63;100143.00;5067776;28;20036;-85
2022/03/08 04:00:12;;;;;;;26.17;17.50;;;;;;;5.90;54.00;100143.44;5065402;28;20454;-84
2022/03/08 04:02:38;;;;;;;27.98;16.65;;;;;;;5.78;53.98;100136.28;5069033;28;20089;-83
2022/03/08 04:05:04;;;;;;;27.02;17.02;;;;;;;5.86;53.97;100149.75;5068420;28;20025;-83
2022/03/08 04:07:29;;;;;;;22.77;16.60;;;;;;;5.86;53.95;100137.56;5062506;28;20467;-84
2022/03/08 04:09:55;;;;;;;33.60;17.85;;;;;;;5.52;54.78;100144.53;5052945;28;20108;-84
2022/03/08 04:12:20;;;;;;;27.40;17.05;;;;;;;5.74;54.51;100136.44;5054449;28;20021;-84
2022/03/08 04:14:45;;;;;;;27.95;17.02;;;;;;;5.63;54.80;100135.31;5054521;28;20032;-85
2022/03/08 04:17:11;;;;;;;29.95;17.25;;;;;;;5.54;55.36;100132.25;5054302;28;20071;-84
2022/03/08 04:19:36;;;;;;;27.05;17.58;;;;;;;5.51;55.27;100132.44;5053703;28;20024;-84
2022/03/08 04:22:01;;;;;;;26.10;17.90;;;;;;;5.56;55.12;100125.22;5053795;28;20013;-84
2022/03/08 04:24:27;;;;;;;25.00;17.30;;;;;;;5.49;55.62;100121.25;5053863;28;20025;-85
2022/03/08 04:26:53;;;;;;;24.33;17.75;;;;;;;5.64;55.48;100116.16;5054058;28;20116;-84
2022/03/08 04:29:18;;;;;;;25.30;16.95;;;;;;;5.50;55.72;100109.91;5052371;28;20104;-85
2022/03/08 04:31:43;;;;;;;24.85;15.90;;;;;;;5.53;55.50;100104.56;5053560;28;20040;-84
2022/03/08 04:34:09;;;;;;;28.90;17.73;;;;;;;5.48;56.09;100108.31;5053308;28;20085;-84
2022/03/08 04:36:34;;;;;;;28.25;18.85;;;;;;;5.42;56.01;100106.84;5053501;28;20036;-84
2022/03/08 04:38:59;;;;;;;25.30;17.38;;;;;;;5.62;55.33;100097.19;5053508;28;20475;-84
2022/03/08 04:41:25;;;;;;;31.92;18.55;;;;;;;5.38;56.28;100094.91;5053794;28;20029;-85
2022/03/08 04:43:51;;;;;;;25.77;17.35;;;;;;;5.62;55.90;100084.16;5053529;28;20052;-84
2022/03/08 04:46:16;;;;;;;27.60;16.27;;;;;;;5.62;55.89;100074.56;5053225;28;20044;-84
2022/03/08 04:48:42;;;;;;;23.58;17.23;;;;;;;5.65;56.07;100079.63;5053059;28;20052;-84
2022/03/08 04:51:07;;;;;;;26.38;16.90;;;;;;;5.59;56.49;100076.50;5051423;28;20413;-84
2022/03/08 04:53:33;;;;;;;30.48;18.50;;;;;;;5.52;56.34;100069.00;5052992;28;20033;-85
2022/03/08 04:55:58;;;;;;;30.35;17.70;;;;;;;5.67;56.32;100063.94;5053389;28;20040;-84
2022/03/08 04:58:23;;;;;;;27.13;18.00;;;;;;;5.63;56.35;100068.47;5053223;28;20186;-84
2022/03/08 05:00:49;;;;;;;27.83;18.50;;;;;;;5.76;55.79;100071.22;5052710;28;20033;-84
2022/03/08 05:03:14;;;;;;;29.65;18.55;;;;;;;5.69;56.33;100068.13;5052224;28;20044;-84
2022/03/08 05:05:39;;;;;;;29.13;18.38;;;;;;;5.52;56.63;100071.59;5052367;28;20035;-84
2022/03/08 05:08:06;;;;;;;27.25;18.58;;;;;;;5.60;56.73;100062.56;5052810;28;20068;-85
2022/03/08 05:10:31;;;;;;;26.60;16.70;;;;;;;5.43;56.86;100063.44;5052660;28;20025;-84
2022/03/08 05:12:58;;;;;;;25.85;17.63;;;;;;;5.47;57.25;100062.34;5053163;28;20032;-84
2022/03/08 05:15:24;;;;;;;23.63;16.48;;;;;;;5.40;57.07;100046.22;5052554;28;20028;-84
2022/03/08 05:17:49;;;;;;;30.05;18.30;;;;;;;5.35;57.20;100043.88;5052858;28;20029;-84
2022/03/08 05:20:14;;;;;;;32.03;19.38;;;;;;;5.33;57.73;100040.50;5052343;28;20025;-84
2022/03/08 05:22:40;;;;;;;26.92;17.38;;;;;;;5.44;57.71;100042.53;5052522;28;20162;-85
2022/03/08 05:25:06;;;;;;;32.00;18.38;;;;;;;5.64;57.01;100054.50;5052756;28;20052;-85
2022/03/08 05:27:31;;;;;;;30.50;17.92;;;;;;;5.61;57.34;100049.47;5052128;28;20082;-84
2022/03/08 05:29:56;;;;;;;29.27;17.00;;;;;;;5.66;56.89;100059.63;5052705;28;20104;-83
2022/03/08 05:32:22;;;;;;;26.85;17.27;;;;;;;5.63;57.29;100062.38;5052075;28;20036;-84
2022/03/08 05:34:47;;;;;;;26.13;18.15;;;;;;;5.67;57.36;100063.94;5051650;28;20036;-84
2022/03/08 05:37:13;;;;;;;27.52;17.92;;;;;;;5.66;57.46;100063.06;5052113;28;20025;-84
2022/03/08 05:39:39;;;;;;;26.63;17.85;;;;;;;5.61;57.79;100066.84;5052067;28;20479;-84
2022/03/08 05:42:04;;;;;;;30.85;18.30;;;;;;;5.71;57.57;100062.84;5052090;28;20391;-84
2022/03/08 05:44:30;;;;;;;27.48;17.45;;;;;;;5.55;58.07;100058.44;5052142;28;20029;-84
2022/03/08 05:46:55;;;;;;;28.17;16.70;;;;;;;5.53;58.55;100073.31;5052127;28;20037;-84
2022/03/08 05:49:22;;;;;;;31.33;17.98;;;;;;;5.64;58.00;100058.88;5052015;28;20036;-84
2022/03/08 05:51:48;;;;;;;27.75;17.92;;;;;;;5.68;57.68;100063.81;5052222;28;20475;-84
2022/03/08 05:54:13;;;;;;;28.80;17.73;;;;;;;5.80;57.46;100064.94;5051889;28;20082;-84
2022/03/08 05:56:38;;;;;;;29.70;18.50;;;;;;;5.81;57.65;100056.22;5051914;28;20021;-84
2022/03/08 05:59:04;;;;;;;30.98;18.00;;;;;;;5.76;58.25;100047.78;5051922;28;20043;-84
2022/03/08 06:01:29;;;;;;;28.33;18.48;;;;;;;5.92;57.97;100051.28;5052323;28;20447;-84
2022/03/08 06:03:54;;;;;;;29.38;17.60;;;;;;;5.95;57.68;100048.50;5052087;28;20051;-84
2022/03/08 06:06:20;;;;;;;33.13;18.55;;;;;;;5.93;57.89;100058.16;5052071;28;20013;-84
2022/03/08 06:08:46;;;;;;;30.52;18.88;;;;;;;5.81;58.26;100051.00;5051732;28;20056;-84
2022/03/08 06:11:12;;;;;;;29.67;17.73;;;;;;;5.81;58.40;100056.22;5052288;28;20056;-84
2022/03/08 06:13:37;;;;;;;31.42;18.13;;;;;;;5.56;59.13;100060.09;5052644;28;20057;-84
2022/03/08 06:16:03;;;;;;;28.00;18.10;;;;;;;5.57;59.43;100064.41;5056073;28;20055;-84
2022/03/08 06:18:29;;;;;;;28.33;19.23;;;;;;;5.61;59.18;100069.44;5055833;28;20115;-84
2022/03/08 06:20:54;;;;;;;35.28;18.85;;;;;;;5.78;58.65;100072.00;5055966;28;20023;-84
2022/03/08 06:23:19;;;;;;;31.55;17.33;;;;;;;5.69;59.02;100064.69;5054426;28;20028;-84
2022/03/08 06:25:45;;;;;;;31.30;16.55;;;;;;;5.60;59.67;100067.78;5054057;28;20068;-84
2022/03/08 06:28:10;;;;;;;33.17;20.13;;;;;;;5.53;60.07;100067.25;5051245;28;20080;-84
2022/03/08 06:30:35;;;;;;;30.23;19.40;;;;;;;5.52;60.19;100074.22;5050727;28;20029;-83
2022/03/08 06:33:01;;;;;;;33.58;19.13;;;;;;;5.67;59.81;100058.72;5050170;28;20058;-84
2022/03/08 06:35:26;;;;;;;36.05;19.77;;;;;;;5.72;59.91;100056.69;5050547;28;20029;-83
2022/03/08 06:37:52;;;;;;;33.50;18.70;;;;;;;5.78;59.79;100056.34;5050479;28;20510;-84
2022/03/08 06:40:18;;;;;;;29.27;19.13;;;;;;;5.67;60.58;100049.13;5052684;28;20028;-86
2022/03/08 06:42:43;;;;;;;33.38;19.35;;;;;;;5.63;60.98;100052.81;5050206;28;20021;-85
2022/03/08 06:45:09;;;;;;;37.22;19.55;;;;;;;5.77;60.55;100046.88;5050427;28;20439;-85
2022/03/08 06:47:36;;;;;;;31.08;18.88;;;;;;;5.65;61.02;100034.53;5050467;28;20033;-84
2022/03/08 06:50:03;;;;;;;31.65;19.08;;;;;;;5.87;60.23;100045.47;5050209;28;20483;-85
2022/03/08 06:52:28;;;;;;;31.33;19.17;;;;;;;5.60;61.33;100046.94;5049520;28;20028;-84
2022/03/08 06:54:53;;;;;;;36.13;21.85;;;;;;;5.81;60.31;100022.34;5049532;28;20039;-86
2022/03/08 06:57:19;;;;;;;36.45;19.77;;;;;;;5.62;61.41;100032.06;5050396;28;20033;-85
2022/03/08 06:59:44;;;;;;;37.20;20.92;;;;;;;5.78;60.98;100045.94;5050095;28;20040;-85
2022/03/08 07:02:09;;;;;;;28.90;19.55;;;;;;;5.96;60.60;100033.72;5049550;28;20039;-85
2022/03/08 07:04:35;;;;;;;29.65;18.55;;;;;;;5.81;61.04;100051.00;5049933;28;20028;-85
2022/03/08 07:07:00;;;;;;;31.98;19.02;;;;;;;5.91;61.33;100046.97;5049535;28;20106;-84
2022/03/08 07:09:26;;;;;;;36.53;19.92;;;;;;;5.89;60.82;100069.66;5049351;28;20143;-85
2022/03/08 07:11:52;;;;;;;33.08;19.98;;;;;;;6.08;60.80;100060.88;5049359;28;20040;-85
2022/03/08 07:14:17;;;;;;;36.72;20.70;;;;;;;6.29;60.35;100056.25;5049616;28;20479;-85
2022/03/08 07:16:44;;;;;;;30.38;19.75;;;;;;;6.26;60.55;100048.56;5049354;28;20539;-85
2022/03/08 07:19:09;;;;;;;33.28;18.88;;;;;;;6.25;60.59;100050.34;5049419;28;20048;-89
2022/03/08 07:21:34;;;;;;;33.33;19.45;;;;;;;6.09;61.41;100049.53;5050071;28;20483;-88
2022/03/08 07:24:00;;;;;;;34.70;20.08;;;;;;;6.13;61.97;100057.09;5048831;28;20394;-88
2022/03/08 07:26:25;;;;;;;36.60;20.60;;;;;;;6.46;60.62;100048.31;5048252;28;20483;-87
2022/03/08 07:28:51;;;;;;;34.92;21.25;;;;;;;6.24;61.43;100053.03;5049233;28;20029;-87
2022/03/08 07:31:16;;;;;;;39.13;20.75;;;;;;;6.58;60.64;100033.75;5048884;28;20025;-85
2022/03/08 07:33:41;;;;;;;33.08;19.80;;;;;;;6.55;60.60;100045.16;5049265;28;20111;-85
2022/03/08 07:36:07;;;;;;;32.95;20.33;;;;;;;6.75;60.41;100046.66;5049298;28;20087;-86
2022/03/08 07:38:32;;;;;;;35.03;20.73;;;;;;;6.63;61.07;100052.56;5049129;28;20033;-85
2022/03/08 07:40:58;;;;;;;30.65;19.85;;;;;;;6.80;60.50;100051.59;5047606;28;20056;-84
2022/03/08 07:43:24;;;;;;;33.25;20.55;;;;;;;7.41;59.66;100046.31;5048160;28;20025;-85
2022/03/08 07:45:49;;;;;;;44.97;21.13;;;;;;;8.36;56.71;100049.97;5048399;28;20029;-84
2022/03/08 07:48:15;;;;;;;34.50;19.73;;;;;;;9.59;53.70;100054.91;5048707;28;20036;-85
2022/03/08 07:50:41;;;;;;;31.73;19.13;;;;;;;10.16;52.46;100062.22;5034260;28;20040;-84
2022/03/08 07:53:06;;;;;;;30.38;18.50;;;;;;;10.45;50.99;100067.19;5048343;28;20402;-85
2022/03/08 07:55:32;;;;;;;33.05;18.67;;;;;;;10.23;51.24;100068.72;5048753;28;20039;-85
2022/03/08 07:57:58;;;;;;;35.08;18.92;;;;;;;10.13;51.91;100054.59;5049092;28;20029;-86
2022/03/08 08:00:25;;;;;;;33.45;18.92;;;;;;;10.62;50.75;100053.63;5049261;28;20029;-86
2022/03/08 08:02:51;;;;;;;28.77;18.20;;;;;;;10.58;50.31;100049.56;5048343;28;20043;-86
2022/03/08 08:05:17;;;;;;;28.45;18.10;;;;;;;11.28;49.32;100045.25;5042946;28;20125;-85
2022/03/08 08:07:43;;;;;;;28.58;18.80;;;;;;;10.70;50.10;100048.69;5046953;28;20040;-85
2022/03/08 08:10:09;;;;;;;28.75;18.45;;;;;;;10.22;50.88;100050.44;5047869;28;20119;-85
2022/03/08 08:12:35;;;;;;;24.90;17.67;;;;;;;9.87;51.83;100054.66;5051316;28;20021;-86
2022/03/08 08:15:00;;;;;;;32.40;19.10;;;;;;;9.47;53.08;100054.78;5052999;28;20471;-84
2022/03/08 08:17:26;;;;;;;32.50;19.83;;;;;;;9.90;52.77;100050.97;5052923;28;20505;-86
2022/03/08 08:19:51;;;;;;;28.63;19.20;;;;;;;10.11;52.04;100046.81;5053206;28;20040;-85
2022/03/08 08:22:17;;;;;;;33.10;19.10;;;;;;;10.18;51.97;100051.63;5052639;28;20475;-85
2022/03/08 08:24:42;;;;;;;28.38;18.50;;;;;;;10.77;50.44;100062.19;5052418;28;20037;-85
2022/03/08 08:27:07;;;;;;;27.65;19.05;;;;;;;11.59;48.98;100045.47;5052449;28;20040;-85
2022/03/08 08:29:33;;;;;;;34.85;18.33;;;;;;;11.45;48.71;100049.19;5052854;28;20039;-85
2022/03/08 08:31:58;;;;;;;33.05;18.80;;;;;;;11.21;49.68;100055.38;5052905;28;20029;-85
2022/03/08 08:34:23;;;;;;;32.90;19.05;;;;;;;10.94;50.35;100050.44;5052216;28;20378;-86
2022/03/08 08:36:49;;;;;;;31.17;19.42;;;;;;;11.31;50.10;100050.25;5052130;28;20112;-86
2022/03/08 08:39:15;;;;;;;32.35;19.63;;;;;;;10.96;50.69;100061.66;5051380;28;20107;-86
2022/03/08 08:41:44;;;;;;;31.65;19.15;;;;;;;11.54;50.01;100050.28;5052295;28;20501;-86
2022/03/08 08:44:10;;;;;;;36.65;21.35;;;;;;;12.47;48.54;100049.91;5053041;28;20037;-86
2022/03/08 08:46:35;;;;;;;34.40;19.77;;;;;;;13.27;46.65;100052.03;5052906;28;20079;-86
2022/03/08 08:49:01;;;;;;;37.50;18.55;;;;;;;13.48;46.41;100046.72;5052807;28;20025;-86
2022/03/08 08:51:27;;;;;;;35.97;20.88;;;;;;;12.77;46.91;100037.81;5052767;28;20104;-86
2022/03/08 08:53:52;;;;;;;28.58;18.98;;;;;;;12.53;47.00;100044.16;5051176;28;20028;-86
2022/03/08 08:56:18;;;;;;;37.45;20.33;;;;;;;12.15;47.80;100039.38;5051910;28;20025;-86
2022/03/08 08:58:43;;;;;;;29.67;18.77;;;;;;;12.78;47.84;100037.69;5052524;28;20497;-86
2022/03/08 09:01:09;;;;;;;31.15;17.95;;;;;;;12.21;48.15;100023.09;5054338;28;20075;-87
2022/03/08 09:03:34;;;;;;;28.75;18.70;;;;;;;12.39;48.04;100026.00;5052524;28;20052;-86
2022/03/08 09:05:59;;;;;;;28.95;19.25;;;;;;;11.85;48.90;100032.94;5052629;28;20021;-87
2022/03/08 09:08:25;;;;;;;37.45;19.23;;;;;;;11.43;50.05;100032.69;5052842;28;20029;-86
2022/03/08 09:10:52;;;;;;;32.45;18.70;;;;;;;11.20;50.88;100034.47;5051491;28;20505;-86
2022/03/08 09:13:17;;;;;;;25.88;18.80;;;;;;;11.06;51.73;100030.28;5052066;28;20037;-86
2022/03/08 09:15:43;;;;;;;30.75;19.55;;;;;;;11.04;51.79;100029.56;5052858;28;20027;-87
2022/03/08 09:18:09;;;;;;;32.60;19.10;;;;;;;10.66;52.92;100028.88;5053280;28;20478;-86
2022/03/08 09:20:34;;;;;;;29.83;19.67;;;;;;;10.51;53.56;100035.25;5053235;28;20453;-86
2022/03/08 09:23:00;;;;;;;28.73;19.88;;;;;;;10.64;53.46;100029.91;5052876;28;20021;-87
2022/03/08 09:25:26;;;;;;;31.83;20.35;;;;;;;10.56;53.76;100029.63;5051163;28;20036;-86
2022/03/08 09:27:52;;;;;;;33.22;21.30;;;;;;;11.08;52.98;100025.75;5052197;28;20033;-87
2022/03/08 09:30:17;;;;;;;31.85;19.20;;;;;;;11.34;52.48;100015.84;5052109;28;20029;-86
2022/03/08 09:32:43;;;;;;;31.30;19.95;;;;;;;11.83;51.73;100019.91;5052292;28;20021;-86
2022/03/08 09:35:08;;;;;;;31.60;19.92;;;;;;;12.13;50.78;100014.97;5051762;28;20033;-87
2022/03/08 09:37:34;;;;;;;35.45;20.15;;;;;;;12.14;50.42;100021.91;5051953;28;20029;-86
2022/03/08 09:40:00;;;;;;;35.03;20.02;;;;;;;12.90;48.89;100017.41;5051651;28;20074;-87
2022/03/08 09:42:25;;;;;;;35.13;20.10;;;;;;;12.49;49.71;100017.22;5051900;28;20025;-87
2022/03/08 09:44:51;;;;;;;30.02;19.60;;;;;;;12.25;50.02;100013.97;5051450;28;20482;-86
2022/03/08 09:47:18;;;;;;;30.25;19.00;;;;;;;12.27;50.29;100007.63;5050590;28;20029;-87
2022/03/08 09:49:44;;;;;;;38.97;20.58;;;;;;;13.51;48.24;100014.00;5051845;28;20021;-84
2022/03/08 09:52:09;;;;;;;38.83;19.02;;;;;;;13.71;47.51;100003.53;5051755;28;20031;-85
2022/03/08 09:54:34;;;;;;;32.83;19.13;;;;;;;13.23;48.04;99999.66;5052434;28;20099;-86
2022/03/08 09:57:07;;;;;;;32.25;19.77;;;;;;;12.69;49.43;99996.31;5052077;28;20500;-85
2022/03/08 09:59:33;;;;;;;34.40;19.33;;;;;;;12.79;49.40;100004.28;5051492;28;20127;-85
2022/03/08 10:01:58;;;;;;;35.42;20.08;;;;;;;12.57;50.36;99992.88;5050640;28;20100;-85
2022/03/08 10:04:23;;;;;;;31.27;19.90;;;;;;;12.25;50.87;99999.00;5051490;28;20284;-86
2022/03/08 10:06:50;;;;;;;31.35;20.02;;;;;;;12.41;50.92;99992.50;5051828;28;20029;-85
2022/03/08 10:09:20;;;;;;;27.88;19.02;;;;;;;12.65;50.29;99984.34;5051800;28;20490;-85
2022/03/08 10:11:51;;;;;;;33.35;19.42;;;;;;;12.52;50.42;99989.81;5050992;28;20029;-86
2022/03/08 10:14:39;;;;;;;34.17;19.83;;;;;;;12.57;50.40;99986.78;5051384;28;20017;-86
2022/03/08 10:17:09;;;;;;;34.28;20.83;;;;;;;12.45;50.65;99981.56;5050621;28;20131;-86
2022/03/08 10:19:44;;;;;;;34.25;19.88;;;;;;;12.51;50.62;100006.56;5051570;28;20033;-86
2022/03/08 10:22:23;;;;;;;36.13;20.73;;;;;;;12.37;51.23;99999.81;5051191;28;20490;-86
2022/03/08 10:24:49;;;;;;;36.15;19.92;;;;;;;12.68;50.44;99990.22;5056308;28;20112;-85
2022/03/08 10:27:16;;;;;;;33.78;19.85;;;;;;;12.68;50.60;99994.66;5051559;28;20101;-85
2022/03/08 10:29:42;;;;;;;37.88;19.80;;;;;;;12.47;51.41;99995.44;5051172;28;20048;-85
2022/03/08 10:32:07;;;;;;;32.47;19.27;;;;;;;12.95;50.40;99986.19;5051507;28;20395;-85
2022/03/08 10:34:34;;;;;;;34.03;19.77;;;;;;;12.53;50.67;99980.13;5050814;28;20021;-85
2022/03/08 10:37:01;;;;;;;34.00;19.83;;;;;;;12.45;51.16;99988.66;5051097;28;20459;-85
2022/03/08 10:39:26;;;;;;;32.35;20.60;;;;;;;12.61;51.06;99977.69;5051016;28;20033;-85
2022/03/08 10:41:54;;;;;;;31.23;18.63;;;;;;;13.04;50.14;99980.16;5050569;28;20074;-85
2022/03/08 10:44:30;;;;;;;35.72;20.40;;;;;;;12.83;50.75;99987.25;5057413;28;20483;-86
2022/03/08 10:47:07;;;;;;;34.22;20.75;;;;;;;13.47;49.17;99987.06;5064808;28;20025;-85
2022/03/08 10:49:34;;;;;;;31.30;19.20;;;;;;;14.13;47.67;99985.69;5067018;28;20028;-85
2022/03/08 10:52:04;;;;;;;37.00;21.90;;;;;;;14.57;47.23;99990.56;5065058;28;20068;-85
2022/03/08 10:54:31;;;;;;;33.28;19.60;;;;;;;14.89;46.28;99982.34;5065773;28;20051;-85
2022/03/08 10:56:57;;;;;;;33.30;18.70;;;;;;;15.99;44.59;99971.00;5059191;28;20522;-86
2022/03/08 10:59:23;;;;;;;28.95;18.10;;;;;;;15.94;44.10;99988.34;5066425;28;20033;-86
2022/03/08 11:01:48;;;;;;;42.03;20.05;;;;;;;15.62;44.54;99984.28;5049765;28;20543;-85
2022/03/08 11:04:22;;;;;;;31.13;18.33;;;;;;;15.99;43.80;99981.59;5067228;28;20021;-85
2022/03/08 11:06:53;;;;;;;25.90;18.15;;;;;;;15.82;44.09;99993.84;5066438;28;20037;-86
2022/03/08 11:09:21;;;;;;;28.77;18.40;;;;;;;16.20;43.99;99976.00;5061536;28;20633;-85
2022/03/08 11:11:46;;;;;;;27.80;17.85;;;;;;;15.67;44.45;99989.97;5067109;28;20050;-85